createdAt,value
2018-12-09T00:02:05.498Z,96674.58
2018-12-09T00:04:35.156Z,96666.42
2018-12-09T00:07:04.317Z,96642.84
2018-12-09T00:09:33.564Z,96620.61
2018-12-09T00:12:02.756Z,96629.38
2018-12-09T00:14:31.880Z,96609.80
2018-12-09T00:17:01.036Z,96594.91
2018-12-09T00:19:30.322Z,96584.70
2018-12-09T00:21:59.591Z,96572.67
2018-12-09T00:24:28.761Z,96550.53
2018-12-09T00:26:58.195Z,96558.95
2018-12-09T00:29:27.302Z,96550.59
2018-12-09T00:31:56.501Z,96547.41
2018-12-09T00:34:25.957Z,96545.09
2018-12-09T00:36:55.192Z,96534.29
2018-12-09T00:39:24.340Z,96534.59
2018-12-09T00:41:53.446Z,96526.52
2018-12-09T00:44:22.779Z,96542.11
2018-12-09T00:46:52.009Z,96521.41
2018-12-09T00:49:21.387Z,96517.73
2018-12-09T00:51:50.544Z,96520.98
2018-12-09T00:54:19.696Z,96508.03
2018-12-09T00:56:50.205Z,96507.58
2018-12-09T00:59:19.413Z,96494.25
2018-12-09T01:01:48.593Z,96499.28
2018-12-09T01:04:17.859Z,96495.52
2018-12-09T01:06:47.217Z,96502.75
2018-12-09T01:09:16.426Z,96476.47
2018-12-09T01:11:45.893Z,96486.83
2018-12-09T01:14:15.119Z,96484.47
2018-12-09T01:16:44.219Z,96480.97
2018-12-09T01:19:13.415Z,96494.11
2018-12-09T01:21:42.806Z,96498.53
2018-12-09T01:24:11.987Z,96486.00
2018-12-09T01:26:41.132Z,96485.47
2018-12-09T01:29:10.281Z,96494.91
2018-12-09T01:31:39.711Z,96486.80
2018-12-09T01:34:08.916Z,96470.27
2018-12-09T01:36:38.227Z,96456.39
2018-12-09T01:39:07.664Z,96445.11
2018-12-09T01:41:37.057Z,96442.63
2018-12-09T01:44:06.199Z,96445.52
2018-12-09T01:46:35.450Z,96446.77
2018-12-09T01:49:04.679Z,96420.91
2018-12-09T01:51:33.804Z,96426.42
2018-12-09T01:54:11.003Z,96423.08
2018-12-09T01:56:40.262Z,96412.09
2018-12-09T01:59:09.417Z,96407.00
2018-12-09T02:01:38.624Z,96389.05
2018-12-09T02:04:08.009Z,96387.30
2018-12-09T02:06:37.260Z,96405.34
2018-12-09T02:09:07.700Z,96387.09
2018-12-09T02:11:37.001Z,96414.00
2018-12-09T02:14:06.242Z,96411.11
2018-12-09T02:16:35.791Z,96391.66
2018-12-09T02:19:13.961Z,96407.52
2018-12-09T02:21:43.917Z,96417.08
2018-12-09T02:24:13.281Z,96419.09
2018-12-09T02:26:42.685Z,96437.55
2018-12-09T02:29:11.881Z,96414.95
2018-12-09T02:31:40.994Z,96389.42
2018-12-09T02:34:10.133Z,96446.72
2018-12-09T02:36:39.839Z,96401.63
2018-12-09T02:39:09.118Z,96402.19
2018-12-09T02:41:38.250Z,96421.30
2018-12-09T02:44:07.625Z,96403.25
2018-12-09T02:46:37.190Z,96396.13
2018-12-09T02:49:06.346Z,96387.44
2018-12-09T02:51:35.598Z,96397.89
2018-12-09T02:54:04.837Z,96374.45
2018-12-09T02:56:34.086Z,96366.47
2018-12-09T02:59:03.187Z,96359.70
2018-12-09T03:01:32.412Z,96381.96
2018-12-09T03:04:01.614Z,96368.39
2018-12-09T03:06:30.882Z,96375.52
2018-12-09T03:09:00.014Z,96366.42
2018-12-09T03:11:29.414Z,96376.13
2018-12-09T03:13:58.647Z,96383.83
2018-12-09T03:16:27.861Z,96386.41
2018-12-09T03:18:57.715Z,96368.18
2018-12-09T03:21:26.839Z,96365.05
2018-12-09T03:23:56.189Z,96364.31
2018-12-09T03:26:25.380Z,96373.47
2018-12-09T03:28:54.888Z,96382.47
2018-12-09T03:31:24.101Z,96390.94
2018-12-09T03:33:53.295Z,96344.41
2018-12-09T03:36:22.474Z,96370.42
2018-12-09T03:38:51.675Z,96362.08
2018-12-09T03:41:20.868Z,96339.30
2018-12-09T03:43:49.981Z,96347.90
2018-12-09T03:46:19.075Z,96350.67
2018-12-09T03:48:48.259Z,96351.16
2018-12-09T03:51:17.711Z,96377.38
2018-12-09T03:53:46.882Z,96387.21
2018-12-09T03:56:16.014Z,96369.69
2018-12-09T03:58:45.105Z,96403.39
2018-12-09T04:01:14.236Z,96403.88
2018-12-09T04:03:43.388Z,96395.61
2018-12-09T04:06:12.531Z,96392.50
2018-12-09T04:08:41.745Z,96427.14
2018-12-09T04:11:12.581Z,96377.75
2018-12-09T04:13:42.369Z,96384.39
2018-12-09T04:16:11.507Z,96379.67
2018-12-09T04:18:40.688Z,96381.56
2018-12-09T04:21:09.851Z,96378.08
2018-12-09T04:23:38.991Z,96380.52
2018-12-09T04:26:08.220Z,96408.77
2018-12-09T04:28:37.368Z,96401.02
2018-12-09T04:31:06.619Z,96397.91
2018-12-09T04:33:38.938Z,96409.50
2018-12-09T04:36:08.144Z,96395.48
2018-12-09T04:38:37.277Z,96392.67
2018-12-09T04:41:06.476Z,96393.58
2018-12-09T04:43:35.776Z,96410.15
2018-12-09T04:46:05.765Z,96425.13
2018-12-09T04:48:35.198Z,96427.18
2018-12-09T04:51:04.393Z,96421.55
2018-12-09T04:53:36.053Z,96422.52
2018-12-09T04:56:05.193Z,96423.10
2018-12-09T04:58:34.347Z,96433.76
2018-12-09T05:01:03.495Z,96432.97
2018-12-09T05:03:32.613Z,96432.83
2018-12-09T05:06:01.754Z,96431.27
2018-12-09T05:08:31.352Z,96458.39
2018-12-09T05:11:00.536Z,96462.66
2018-12-09T05:13:29.647Z,96467.96
2018-12-09T05:15:59.238Z,96477.34
2018-12-09T05:18:28.368Z,96476.09
2018-12-09T05:20:57.755Z,96472.44
2018-12-09T05:23:26.944Z,96470.38
2018-12-09T05:25:56.244Z,96464.86
2018-12-09T05:28:25.370Z,96468.47
2018-12-09T05:30:54.854Z,96469.34
2018-12-09T05:33:24.044Z,96479.41
2018-12-09T05:35:53.312Z,96454.55
2018-12-09T05:38:22.478Z,96466.92
2018-12-09T05:40:52.225Z,96453.70
2018-12-09T05:43:21.404Z,96454.88
2018-12-09T05:45:50.739Z,96444.36
2018-12-09T05:48:19.903Z,96452.23
2018-12-09T05:50:49.216Z,96452.89
2018-12-09T05:53:18.833Z,96463.14
2018-12-09T05:55:47.987Z,96453.59
2018-12-09T05:58:17.201Z,96469.02
2018-12-09T06:00:46.346Z,96470.49
2018-12-09T06:03:15.637Z,96478.30
2018-12-09T06:05:45.052Z,96463.83
2018-12-09T06:08:14.352Z,96479.03
2018-12-09T06:10:43.546Z,96466.34
2018-12-09T06:13:12.674Z,96485.62
2018-12-09T06:15:42.213Z,96436.99
2018-12-09T06:18:11.478Z,96464.44
2018-12-09T06:20:40.846Z,96482.91
2018-12-09T06:23:10.043Z,96467.38
2018-12-09T06:25:39.199Z,96514.08
2018-12-09T06:28:16.805Z,96492.00
2018-12-09T06:30:45.933Z,96460.27
2018-12-09T06:33:15.188Z,96507.02
2018-12-09T06:35:44.428Z,96501.75
2018-12-09T06:38:13.732Z,96508.69
2018-12-09T06:40:43.008Z,96486.83
2018-12-09T06:43:12.167Z,96524.85
2018-12-09T06:45:41.389Z,96516.73
2018-12-09T06:48:10.932Z,96506.77
2018-12-09T06:50:40.208Z,96502.72
2018-12-09T06:53:09.432Z,96483.97
2018-12-09T06:55:38.566Z,96539.22
2018-12-09T06:58:07.767Z,96528.17
2018-12-09T07:00:37.457Z,96529.23
2018-12-09T07:03:06.738Z,96517.88
2018-12-09T07:05:35.837Z,96496.09
2018-12-09T07:08:04.989Z,96538.69
2018-12-09T07:10:34.129Z,96516.50
2018-12-09T07:13:03.252Z,96575.11
2018-12-09T07:15:32.518Z,96557.00
2018-12-09T07:18:01.887Z,96583.94
2018-12-09T07:20:31.221Z,96566.14
2018-12-09T07:23:00.421Z,96567.87
2018-12-09T07:25:29.727Z,96566.95
2018-12-09T07:27:59.019Z,96576.45
2018-12-09T07:30:28.137Z,96571.61
2018-12-09T07:32:57.421Z,96563.75
2018-12-09T07:35:26.825Z,96602.24
2018-12-09T07:37:55.961Z,96581.73
2018-12-09T07:40:25.118Z,96580.58
2018-12-09T07:42:54.308Z,96600.77
2018-12-09T07:45:23.871Z,96588.72
2018-12-09T07:47:53.021Z,96582.75
2018-12-09T07:50:22.130Z,96604.62
2018-12-09T07:52:51.425Z,96599.41
2018-12-09T07:55:20.719Z,96597.73
2018-12-09T07:57:49.915Z,96613.17
2018-12-09T08:00:19.110Z,96630.48
2018-12-09T08:02:48.244Z,96606.67
2018-12-09T08:05:17.420Z,96604.35
2018-12-09T08:07:46.534Z,96604.05
2018-12-09T08:10:15.803Z,96597.27
2018-12-09T08:12:45.054Z,96597.56
2018-12-09T08:15:14.165Z,96616.52
2018-12-09T08:17:43.389Z,96620.59
2018-12-09T08:20:12.561Z,96622.84
2018-12-09T08:22:41.765Z,96633.45
2018-12-09T08:25:10.976Z,96655.22
2018-12-09T08:27:40.111Z,96643.73
2018-12-09T08:30:09.274Z,96656.94
2018-12-09T08:32:38.544Z,96671.05
2018-12-09T08:35:11.195Z,96659.56
2018-12-09T08:37:40.450Z,96680.23
2018-12-09T08:40:09.583Z,96675.27
2018-12-09T08:42:39.139Z,96681.08
2018-12-09T08:45:08.283Z,96668.94
2018-12-09T08:47:38.797Z,96693.44
2018-12-09T08:50:08.306Z,96676.14
2018-12-09T08:52:37.446Z,96683.55
2018-12-09T08:55:06.903Z,96671.98
2018-12-09T08:57:36.083Z,96683.50
2018-12-09T09:00:05.279Z,96673.88
2018-12-09T09:02:34.495Z,96697.69
2018-12-09T09:05:04.712Z,96696.85
2018-12-09T09:07:33.961Z,96695.02
2018-12-09T09:10:03.122Z,96711.89
2018-12-09T09:12:32.224Z,96697.77
2018-12-09T09:15:01.403Z,96695.22
2018-12-09T09:17:30.501Z,96745.14
2018-12-09T09:19:59.654Z,96715.10
2018-12-09T09:22:28.774Z,96699.70
2018-12-09T09:24:58.103Z,96708.77
2018-12-09T09:27:27.402Z,96710.45
2018-12-09T09:29:56.532Z,96705.48
2018-12-09T09:32:25.651Z,96733.84
2018-12-09T09:34:54.778Z,96714.84
2018-12-09T09:37:23.919Z,96732.73
2018-12-09T09:39:53.179Z,96718.27
2018-12-09T09:42:22.577Z,96732.23
2018-12-09T09:44:51.687Z,96728.83
2018-12-09T09:47:20.870Z,96727.27
2018-12-09T09:49:50.006Z,96713.91
2018-12-09T09:52:19.232Z,96734.48
2018-12-09T09:54:48.464Z,96737.16
2018-12-09T09:57:17.616Z,96738.07
2018-12-09T09:59:46.776Z,96717.59
2018-12-09T10:02:16.360Z,96716.84
2018-12-09T10:04:45.485Z,96731.53
2018-12-09T10:07:14.660Z,96720.88
2018-12-09T10:09:43.849Z,96716.30
2018-12-09T10:12:13.065Z,96735.01
2018-12-09T10:14:42.251Z,96733.64
2018-12-09T10:17:19.644Z,96730.52
2018-12-09T10:19:49.135Z,96736.16
2018-12-09T10:22:18.273Z,96736.16
2018-12-09T10:24:47.433Z,96741.97
2018-12-09T10:27:16.970Z,96758.80
2018-12-09T10:29:46.132Z,96725.21
2018-12-09T10:32:15.353Z,96744.86
2018-12-09T10:34:44.469Z,96736.28
2018-12-09T10:37:13.599Z,96740.83
2018-12-09T10:39:45.001Z,96734.39
2018-12-09T10:42:14.267Z,96749.19
2018-12-09T10:44:43.401Z,96743.40
2018-12-09T10:47:15.886Z,96749.08
2018-12-09T10:49:45.023Z,96736.69
2018-12-09T10:52:14.220Z,96746.23
2018-12-09T10:54:43.320Z,96740.02
2018-12-09T10:57:12.465Z,96734.52
2018-12-09T10:59:41.560Z,96727.58
2018-12-09T11:02:16.267Z,96745.48
2018-12-09T11:04:45.667Z,96729.45
2018-12-09T11:07:14.787Z,96735.36
2018-12-09T11:09:43.959Z,96749.63
2018-12-09T11:12:13.264Z,96741.55
2018-12-09T11:14:42.561Z,96750.33
2018-12-09T11:17:11.725Z,96745.82
2018-12-09T11:19:40.860Z,96756.23
2018-12-09T11:22:10.057Z,96754.59
2018-12-09T11:24:39.255Z,96751.35
2018-12-09T11:27:08.378Z,96758.30
2018-12-09T11:29:37.650Z,96773.11
2018-12-09T11:32:06.772Z,96769.29
2018-12-09T11:34:35.942Z,96743.98
2018-12-09T11:37:05.352Z,96782.22
2018-12-09T11:39:34.507Z,96736.36
2018-12-09T11:42:03.868Z,96751.81
2018-12-09T11:44:33.452Z,96754.48
2018-12-09T11:47:02.650Z,96758.52
2018-12-09T11:49:31.796Z,96753.52
2018-12-09T11:52:00.926Z,96747.30
2018-12-09T11:54:30.117Z,96757.23
2018-12-09T11:56:59.237Z,96750.31
2018-12-09T11:59:28.434Z,96763.85
2018-12-09T12:01:57.634Z,96755.00
2018-12-09T12:04:26.807Z,96752.71
2018-12-09T12:06:55.956Z,96754.31
2018-12-09T12:09:25.176Z,96770.33
2018-12-09T12:11:54.286Z,96771.20
2018-12-09T12:14:23.433Z,96758.64
2018-12-09T12:16:52.843Z,96760.85
2018-12-09T12:19:22.124Z,96755.23
2018-12-09T12:21:51.326Z,96764.45
2018-12-09T12:24:20.917Z,96760.56
2018-12-09T12:26:50.296Z,96772.48
2018-12-09T12:29:19.396Z,96761.55
2018-12-09T12:31:48.580Z,96752.08
2018-12-09T12:34:17.719Z,96753.02
2018-12-09T12:36:47.118Z,96751.61
2018-12-09T12:39:16.300Z,96767.81
2018-12-09T12:41:45.429Z,96727.62
2018-12-09T12:44:14.746Z,96745.39
2018-12-09T12:46:44.118Z,96740.97
2018-12-09T12:49:13.509Z,96728.73
2018-12-09T12:51:42.721Z,96725.99
2018-12-09T12:54:11.887Z,96738.42
2018-12-09T12:56:41.139Z,96732.33
2018-12-09T12:59:12.271Z,96734.08
2018-12-09T13:01:41.657Z,96735.98
2018-12-09T13:04:10.928Z,96734.78
2018-12-09T13:06:40.213Z,96731.53
2018-12-09T13:09:09.359Z,96733.89
2018-12-09T13:11:38.755Z,96717.68
2018-12-09T13:14:07.994Z,96725.60
2018-12-09T13:16:37.367Z,96742.92
2018-12-09T13:19:06.660Z,96738.84
2018-12-09T13:21:35.854Z,96751.28
2018-12-09T13:24:05.057Z,96726.11
2018-12-09T13:26:34.670Z,96739.63
2018-12-09T13:29:03.936Z,96734.13
2018-12-09T13:31:33.078Z,96738.53
2018-12-09T13:34:02.292Z,96733.14
2018-12-09T13:36:31.454Z,96725.75
2018-12-09T13:39:00.865Z,96777.63
2018-12-09T13:41:30.340Z,96719.54
2018-12-09T13:43:59.766Z,96728.47
2018-12-09T13:46:29.074Z,96723.28
2018-12-09T13:48:58.247Z,96724.50
2018-12-09T13:51:27.456Z,96723.56
2018-12-09T13:53:56.562Z,96725.16
2018-12-09T13:56:25.955Z,96742.98
2018-12-09T13:58:55.053Z,96732.85
2018-12-09T14:01:24.165Z,96743.59
2018-12-09T14:03:53.451Z,96746.02
2018-12-09T14:06:23.055Z,96744.52
2018-12-09T14:08:52.354Z,96743.16
2018-12-09T14:11:21.544Z,96753.92
2018-12-09T14:13:50.779Z,96746.30
2018-12-09T14:16:20.057Z,96752.77
2018-12-09T14:18:49.351Z,96760.02
2018-12-09T14:21:18.540Z,96744.23
2018-12-09T14:23:47.711Z,96747.67
2018-12-09T14:26:16.831Z,96748.52
2018-12-09T14:28:46.655Z,96758.59
2018-12-09T14:31:15.746Z,96737.70
2018-12-09T14:33:44.900Z,96756.84
2018-12-09T14:36:14.131Z,96765.07
2018-12-09T14:38:43.261Z,96746.09
2018-12-09T14:41:12.380Z,96766.75
2018-12-09T14:43:42.379Z,96765.73
2018-12-09T14:46:11.620Z,96771.38
2018-12-09T14:48:40.857Z,96767.34
2018-12-09T14:51:10.153Z,96765.66
2018-12-09T14:53:39.452Z,96754.45
2018-12-09T14:56:08.545Z,96761.01
2018-12-09T14:58:37.745Z,96786.32
2018-12-09T15:01:06.945Z,96762.61
2018-12-09T15:03:36.200Z,96773.64
2018-12-09T15:06:05.339Z,96769.75
2018-12-09T15:08:34.493Z,96769.61
2018-12-09T15:11:03.642Z,96765.41
2018-12-09T15:13:32.743Z,96769.15
2018-12-09T15:16:02.019Z,96792.16
2018-12-09T15:18:31.145Z,96787.14
2018-12-09T15:21:00.617Z,96792.85
2018-12-09T15:23:32.898Z,96795.19
2018-12-09T15:26:02.038Z,96814.18
2018-12-09T15:28:31.199Z,96805.56
2018-12-09T15:31:00.351Z,96798.48
2018-12-09T15:33:29.696Z,96797.39
2018-12-09T15:35:58.836Z,96805.23
2018-12-09T15:38:28.055Z,96817.22
2018-12-09T15:40:57.159Z,96803.48
2018-12-09T15:43:26.601Z,96805.42
2018-12-09T15:45:55.740Z,96812.81
2018-12-09T15:48:24.942Z,96812.95
2018-12-09T15:50:54.072Z,96826.23
2018-12-09T15:53:23.356Z,96825.12
2018-12-09T15:55:52.564Z,96843.31
2018-12-09T15:58:21.677Z,96832.34
2018-12-09T16:00:55.272Z,96840.30
2018-12-09T16:03:24.439Z,96844.79
2018-12-09T16:05:53.589Z,96849.56
2018-12-09T16:08:22.763Z,96852.51
2018-12-09T16:10:52.105Z,96851.89
2018-12-09T16:13:21.369Z,96847.27
2018-12-09T16:15:50.764Z,96852.05
2018-12-09T16:18:19.963Z,96852.89
2018-12-09T16:20:49.124Z,96864.77
2018-12-09T16:23:18.309Z,96863.02
2018-12-09T16:25:47.554Z,96877.26
2018-12-09T16:28:16.691Z,96874.48
2018-12-09T16:30:45.794Z,96869.91
2018-12-09T16:33:14.922Z,96884.53
2018-12-09T16:35:44.054Z,96878.67
2018-12-09T16:38:13.194Z,96892.69
2018-12-09T16:40:42.433Z,96909.06
2018-12-09T16:43:11.867Z,96900.72
2018-12-09T16:45:41.340Z,96900.11
2018-12-09T16:48:10.501Z,96918.94
2018-12-09T16:50:39.748Z,96919.84
2018-12-09T16:53:08.920Z,96938.20
2018-12-09T16:55:38.031Z,96937.29
2018-12-09T16:58:07.156Z,96930.49
2018-12-09T17:00:36.433Z,96924.80
2018-12-09T17:03:05.917Z,96932.23
2018-12-09T17:05:35.545Z,96949.45
2018-12-09T17:08:04.746Z,96934.19
2018-12-09T17:10:33.960Z,96963.56
2018-12-09T17:13:03.096Z,96966.09
2018-12-09T17:15:32.232Z,96976.52
2018-12-09T17:18:01.656Z,96984.67
2018-12-09T17:20:30.871Z,97000.33
2018-12-09T17:23:00.167Z,97002.47
2018-12-09T17:25:29.485Z,97036.64
2018-12-09T17:27:58.706Z,97022.49
2018-12-09T17:30:27.920Z,97005.28
2018-12-09T17:32:57.038Z,97018.34
2018-12-09T17:35:26.524Z,97027.92
2018-12-09T17:37:55.758Z,97041.41
2018-12-09T17:40:24.960Z,97040.81
2018-12-09T17:42:54.158Z,97066.78
2018-12-09T17:45:25.070Z,97072.29
2018-12-09T17:47:54.291Z,97062.95
2018-12-09T17:50:23.911Z,97099.91
2018-12-09T17:52:53.174Z,97071.31
2018-12-09T17:55:22.369Z,97091.73
2018-12-09T17:57:56.221Z,97085.77
2018-12-09T18:00:25.413Z,97100.15
2018-12-09T18:02:54.704Z,97095.88
2018-12-09T18:05:24.063Z,97099.64
2018-12-09T18:07:53.313Z,97094.02
2018-12-09T18:10:22.590Z,97117.30
2018-12-09T18:12:51.822Z,97121.03
2018-12-09T18:15:21.922Z,97120.98
2018-12-09T18:17:51.466Z,97119.17
2018-12-09T18:20:20.650Z,97133.15
2018-12-09T18:22:50.263Z,97144.53
2018-12-09T18:25:19.537Z,97158.65
2018-12-09T18:27:48.735Z,97156.57
2018-12-09T18:30:17.872Z,97169.45
2018-12-09T18:32:47.159Z,97170.24
2018-12-09T18:35:16.313Z,97175.53
2018-12-09T18:37:46.505Z,97179.36
2018-12-09T18:40:15.897Z,97174.88
2018-12-09T18:42:45.024Z,97194.23
2018-12-09T18:45:14.569Z,97201.04
2018-12-09T18:47:43.705Z,97219.50
2018-12-09T18:50:12.831Z,97215.92
2018-12-09T18:52:41.956Z,97225.38
2018-12-09T18:55:11.122Z,97233.42
2018-12-09T18:57:40.462Z,97242.28
2018-12-09T19:00:09.640Z,97239.44
2018-12-09T19:02:38.821Z,97242.25
2018-12-09T19:05:08.232Z,97250.08
2018-12-09T19:07:37.522Z,97243.91
2018-12-09T19:10:06.983Z,97240.53
2018-12-09T19:12:36.303Z,97243.37
2018-12-09T19:15:05.575Z,97253.83
2018-12-09T19:17:34.831Z,97258.30
2018-12-09T19:20:04.019Z,97245.67
2018-12-09T19:22:33.176Z,97258.66
2018-12-09T19:25:02.435Z,97261.94
2018-12-09T19:27:31.933Z,97273.13
2018-12-09T19:30:01.244Z,97269.64
2018-12-09T19:32:30.624Z,97287.99
2018-12-09T19:34:59.797Z,97290.47
2018-12-09T19:37:29.017Z,97287.89
2018-12-09T19:39:58.551Z,97300.61
2018-12-09T19:42:27.834Z,97297.67
2018-12-09T19:44:57.050Z,97299.31
2018-12-09T19:47:26.353Z,97314.53
2018-12-09T19:49:55.476Z,97322.01
2018-12-09T19:52:24.880Z,97316.95
2018-12-09T19:54:54.064Z,97330.28
2018-12-09T19:57:23.254Z,97337.69
2018-12-09T19:59:52.626Z,97340.86
2018-12-09T20:02:21.847Z,97349.06
2018-12-09T20:04:51.148Z,97351.07
2018-12-09T20:07:20.347Z,97352.71
2018-12-09T20:09:50.446Z,97350.29
2018-12-09T20:12:19.607Z,97341.73
2018-12-09T20:14:48.711Z,97370.64
2018-12-09T20:17:17.930Z,97357.94
2018-12-09T20:19:47.267Z,97362.49
2018-12-09T20:22:18.942Z,97372.61
2018-12-09T20:24:48.174Z,97392.06
2018-12-09T20:27:17.380Z,97385.14
2018-12-09T20:29:46.616Z,97381.43
2018-12-09T20:32:15.746Z,97387.00
2018-12-09T20:34:45.910Z,97387.35
2018-12-09T20:37:15.018Z,97391.53
2018-12-09T20:39:45.203Z,97389.94
2018-12-09T20:42:14.473Z,97397.70
2018-12-09T20:44:43.659Z,97400.05
2018-12-09T20:47:13.319Z,97415.93
2018-12-09T20:49:42.526Z,97408.91
2018-12-09T20:52:12.581Z,97400.30
2018-12-09T20:54:41.794Z,97409.86
2018-12-09T20:57:10.947Z,97417.72
2018-12-09T20:59:40.094Z,97419.41
2018-12-09T21:02:09.391Z,97413.73
2018-12-09T21:04:38.729Z,97423.46
2018-12-09T21:07:07.926Z,97421.85
2018-12-09T21:09:37.063Z,97412.66
2018-12-09T21:12:06.484Z,97435.00
2018-12-09T21:14:35.808Z,97431.97
2018-12-09T21:17:05.160Z,97433.31
2018-12-09T21:19:34.456Z,97438.48
2018-12-09T21:22:03.971Z,97446.80
2018-12-09T21:24:33.161Z,97445.69
2018-12-09T21:27:02.463Z,97453.32
2018-12-09T21:29:31.570Z,97455.51
2018-12-09T21:32:00.970Z,97470.09
2018-12-09T21:34:30.127Z,97456.13
2018-12-09T21:37:01.174Z,97461.97
2018-12-09T21:39:30.654Z,97466.39
2018-12-09T21:41:59.767Z,97450.13
2018-12-09T21:44:28.961Z,97476.06
2018-12-09T21:46:58.430Z,97477.09
2018-12-09T21:49:27.714Z,97474.41
2018-12-09T21:51:57.013Z,97481.73
2018-12-09T21:54:26.408Z,97481.82
2018-12-09T21:56:55.605Z,97490.83
2018-12-09T21:59:24.746Z,97490.73
2018-12-09T22:01:53.897Z,97489.72
2018-12-09T22:04:23.299Z,97489.62
2018-12-09T22:06:52.534Z,97508.08
2018-12-09T22:09:21.798Z,97517.19
2018-12-09T22:11:51.101Z,97519.46
2018-12-09T22:14:20.406Z,97527.34
2018-12-09T22:16:49.677Z,97531.67
2018-12-09T22:19:18.791Z,97536.67
2018-12-09T22:21:47.994Z,97531.90
2018-12-09T22:24:17.173Z,97539.05
2018-12-09T22:26:46.492Z,97548.09
2018-12-09T22:29:15.685Z,97546.48
2018-12-09T22:31:44.976Z,97555.02
2018-12-09T22:34:14.097Z,97550.41
2018-12-09T22:36:43.282Z,97561.33
2018-12-09T22:39:12.550Z,97557.72
2018-12-09T22:41:41.766Z,97568.80
2018-12-09T22:44:10.906Z,97582.48
2018-12-09T22:46:40.051Z,97580.95
2018-12-09T22:49:09.164Z,97579.16
2018-12-09T22:51:38.457Z,97595.56
2018-12-09T22:54:07.678Z,97587.08
2018-12-09T22:56:36.789Z,97591.59
2018-12-09T22:59:05.916Z,97584.02
2018-12-09T23:01:35.194Z,97606.20
2018-12-09T23:04:04.447Z,97611.69
2018-12-09T23:06:33.755Z,97617.30
2018-12-09T23:09:03.349Z,97617.25
2018-12-09T23:11:32.476Z,97631.63
2018-12-09T23:14:01.839Z,97627.59
2018-12-09T23:16:30.977Z,97634.06
2018-12-09T23:19:00.103Z,97637.77
2018-12-09T23:21:29.205Z,97636.11
2018-12-09T23:23:58.547Z,97640.53
2018-12-09T23:26:27.643Z,97642.98
2018-12-09T23:28:56.827Z,97651.59
2018-12-09T23:31:26.017Z,97637.45
2018-12-09T23:33:55.153Z,97652.13
2018-12-09T23:36:24.513Z,97665.66
2018-12-09T23:38:53.747Z,97664.17
2018-12-09T23:41:23.158Z,97671.84
2018-12-09T23:43:52.267Z,97690.08
2018-12-09T23:46:21.402Z,97735.02
2018-12-09T23:48:50.521Z,97720.73
2018-12-09T23:51:19.641Z,97732.39
2018-12-09T23:53:48.781Z,97710.30
2018-12-09T23:56:17.930Z,97712.44
2018-12-09T23:58:47.083Z,97732.16
